sensor_id;sensor_type;location;lat;lon;timestamp;P1;durP1;ratioP1;P2;durP2;ratioP2
9117;SDS011;4594;50.994;7.126;2023-11-21T00:01:57;4.57;;;4.20;;
9117;SDS011;4594;50.994;7.126;2023-11-21T00:04:23;4.97;;;4.43;;
9117;SDS011;4594;50.994;7.126;2023-11-21T00:06:50;4.40;;;4.00;;
9117;SDS011;4594;50.994;7.126;2023-11-21T00:09:16;4.60;;;4.20;;
9117;SDS011;4594;50.994;7.126;2023-11-21T00:11:42;4.40;;;4.00;;
9117;SDS011;4594;50.994;7.126;2023-11-21T00:14:09;4.57;;;4.07;;
9117;SDS011;4594;50.994;7.126;2023-11-21T00:16:36;5.20;;;4.10;;
9117;SDS011;4594;50.994;7.126;2023-11-21T00:19:02;7.10;;;4.43;;
9117;SDS011;4594;50.994;7.126;2023-11-21T00:21:28;5.43;;;4.63;;
9117;SDS011;4594;50.994;7.126;2023-11-21T00:23:53;4.90;;;4.40;;
9117;SDS011;4594;50.994;7.126;2023-11-21T00:26:19;5.67;;;4.37;;
9117;SDS011;4594;50.994;7.126;2023-11-21T00:28:45;9.47;;;4.53;;
9117;SDS011;4594;50.994;7.126;2023-11-21T00:31:10;4.60;;;4.20;;
9117;SDS011;4594;50.994;7.126;2023-11-21T00:33:36;5.27;;;4.77;;
9117;SDS011;4594;50.994;7.126;2023-11-21T00:36:02;4.40;;;4.03;;
9117;SDS011;4594;50.994;7.126;2023-11-21T00:38:28;5.37;;;4.70;;
9117;SDS011;4594;50.994;7.126;2023-11-21T00:40:53;8.30;;;4.53;;
9117;SDS011;4594;50.994;7.126;2023-11-21T00:43:24;7.37;;;4.50;;
9117;SDS011;4594;50.994;7.126;2023-11-21T00:45:49;5.43;;;4.40;;
9117;SDS011;4594;50.994;7.126;2023-11-21T00:48:16;5.07;;;4.57;;
9117;SDS011;4594;50.994;7.126;2023-11-21T00:50:43;5.30;;;4.83;;
9117;SDS011;4594;50.994;7.126;2023-11-21T00:53:09;4.90;;;4.50;;
9117;SDS011;4594;50.994;7.126;2023-11-21T00:55:36;7.43;;;4.53;;
9117;SDS011;4594;50.994;7.126;2023-11-21T00:58:05;6.43;;;4.53;;
9117;SDS011;4594;50.994;7.126;2023-11-21T01:00:32;4.93;;;4.53;;
9117;SDS011;4594;50.994;7.126;2023-11-21T01:02:59;6.67;;;5.13;;
9117;SDS011;4594;50.994;7.126;2023-11-21T01:05:25;5.10;;;4.67;;
9117;SDS011;4594;50.994;7.126;2023-11-21T01:07:51;8.30;;;4.93;;
9117;SDS011;4594;50.994;7.126;2023-11-21T01:10:17;6.47;;;4.77;;
9117;SDS011;4594;50.994;7.126;2023-11-21T01:12:43;4.97;;;4.53;;
9117;SDS011;4594;50.994;7.126;2023-11-21T01:15:09;5.40;;;4.90;;
9117;SDS011;4594;50.994;7.126;2023-11-21T01:17:37;6.30;;;4.83;;
9117;SDS011;4594;50.994;7.126;2023-11-21T01:20:03;6.07;;;4.87;;
9117;SDS011;4594;50.994;7.126;2023-11-21T01:22:36;6.77;;;5.10;;
9117;SDS011;4594;50.994;7.126;2023-11-21T01:25:01;7.67;;;5.10;;
9117;SDS011;4594;50.994;7.126;2023-11-21T01:27:29;5.93;;;5.33;;
9117;SDS011;4594;50.994;7.126;2023-11-21T01:29:55;8.23;;;5.83;;
9117;SDS011;4594;50.994;7.126;2023-11-21T01:32:20;9.47;;;6.07;;
9117;SDS011;4594;50.994;7.126;2023-11-21T01:34:47;6.00;;;5.40;;
9117;SDS011;4594;50.994;7.126;2023-11-21T01:37:15;6.47;;;5.00;;
9117;SDS011;4594;50.994;7.126;2023-11-21T01:39:42;5.50;;;5.00;;
9117;SDS011;4594;50.994;7.126;2023-11-21T01:42:09;9.63;;;5.40;;
9117;SDS011;4594;50.994;7.126;2023-11-21T01:44:36;6.57;;;5.67;;
9117;SDS011;4594;50.994;7.126;2023-11-21T01:47:01;7.43;;;5.30;;
9117;SDS011;4594;50.994;7.126;2023-11-21T01:49:30;6.90;;;6.17;;
9117;SDS011;4594;50.994;7.126;2023-11-21T01:51:58;8.37;;;5.73;;
9117;SDS011;4594;50.994;7.126;2023-11-21T01:54:24;7.90;;;5.57;;
9117;SDS011;4594;50.994;7.126;2023-11-21T01:56:50;6.33;;;5.73;;
9117;SDS011;4594;50.994;7.126;2023-11-21T01:59:19;5.80;;;5.30;;
9117;SDS011;4594;50.994;7.126;2023-11-21T02:01:46;5.67;;;5.13;;
9117;SDS011;4594;50.994;7.126;2023-11-21T02:04:12;6.33;;;5.30;;
9117;SDS011;4594;50.994;7.126;2023-11-21T02:06:38;5.27;;;4.87;;
9117;SDS011;4594;50.994;7.126;2023-11-21T02:09:05;5.53;;;5.03;;
9117;SDS011;4594;50.994;7.126;2023-11-21T02:11:30;5.90;;;5.40;;
9117;SDS011;4594;50.994;7.126;2023-11-21T02:13:59;5.77;;;5.27;;
9117;SDS011;4594;50.994;7.126;2023-11-21T02:16:25;5.37;;;4.90;;
9117;SDS011;4594;50.994;7.126;2023-11-21T02:18:52;6.33;;;5.60;;
9117;SDS011;4594;50.994;7.126;2023-11-21T02:21:18;10.13;;;5.90;;
9117;SDS011;4594;50.994;7.126;2023-11-21T02:23:46;9.23;;;5.20;;
9117;SDS011;4594;50.994;7.126;2023-11-21T02:26:12;7.93;;;5.43;;
9117;SDS011;4594;50.994;7.126;2023-11-21T02:28:39;5.20;;;4.80;;
9117;SDS011;4594;50.994;7.126;2023-11-21T02:31:05;6.10;;;5.40;;
9117;SDS011;4594;50.994;7.126;2023-11-21T02:33:32;6.60;;;5.13;;
9117;SDS011;4594;50.994;7.126;2023-11-21T02:36:02;7.90;;;5.63;;
9117;SDS011;4594;50.994;7.126;2023-11-21T02:38:28;7.10;;;5.57;;
9117;SDS011;4594;50.994;7.126;2023-11-21T02:40:55;7.30;;;4.93;;
9117;SDS011;4594;50.994;7.126;2023-11-21T02:43:24;5.83;;;5.23;;
9117;SDS011;4594;50.994;7.126;2023-11-21T02:45:50;7.63;;;5.10;;
9117;SDS011;4594;50.994;7.126;2023-11-21T02:48:15;6.53;;;4.57;;
9117;SDS011;4594;50.994;7.126;2023-11-21T02:50:41;5.00;;;4.60;;
9117;SDS011;4594;50.994;7.126;2023-11-21T02:53:08;4.80;;;4.40;;
9117;SDS011;4594;50.994;7.126;2023-11-21T02:55:35;5.37;;;4.87;;
9117;SDS011;4594;50.994;7.126;2023-11-21T02:58:02;5.03;;;4.63;;
9117;SDS011;4594;50.994;7.126;2023-11-21T03:00:31;5.50;;;5.00;;
9117;SDS011;4594;50.994;7.126;2023-11-21T03:02:57;8.03;;;5.70;;
9117;SDS011;4594;50.994;7.126;2023-11-21T03:05:22;10.07;;;5.43;;
9117;SDS011;4594;50.994;7.126;2023-11-21T03:07:48;5.93;;;5.20;;
9117;SDS011;4594;50.994;7.126;2023-11-21T03:10:13;6.27;;;5.30;;
9117;SDS011;4594;50.994;7.126;2023-11-21T03:12:39;5.20;;;4.70;;
9117;SDS011;4594;50.994;7.126;2023-11-21T03:15:08;5.57;;;5.00;;
9117;SDS011;4594;50.994;7.126;2023-11-21T03:17:34;5.60;;;4.63;;
9117;SDS011;4594;50.994;7.126;2023-11-21T03:20:01;5.50;;;5.00;;
9117;SDS011;4594;50.994;7.126;2023-11-21T03:22:28;12.43;;;4.63;;
9117;SDS011;4594;50.994;7.126;2023-11-21T03:24:54;4.67;;;4.27;;
9117;SDS011;4594;50.994;7.126;2023-11-21T03:27:20;7.47;;;4.60;;
9117;SDS011;4594;50.994;7.126;2023-11-21T03:29:46;7.20;;;4.67;;
9117;SDS011;4594;50.994;7.126;2023-11-21T03:32:13;8.03;;;5.60;;
9117;SDS011;4594;50.994;7.126;2023-11-21T03:34:58;7.57;;;5.10;;
9117;SDS011;4594;50.994;7.126;2023-11-21T03:37:24;5.97;;;4.83;;
9117;SDS011;4594;50.994;7.126;2023-11-21T03:39:50;7.87;;;5.37;;
9117;SDS011;4594;50.994;7.126;2023-11-21T03:42:16;5.50;;;4.90;;
9117;SDS011;4594;50.994;7.126;2023-11-21T03:44:42;5.53;;;4.90;;
9117;SDS011;4594;50.994;7.126;2023-11-21T03:47:07;5.77;;;5.20;;
9117;SDS011;4594;50.994;7.126;2023-11-21T03:49:33;7.63;;;5.63;;
9117;SDS011;4594;50.994;7.126;2023-11-21T03:51:58;5.90;;;5.30;;
9117;SDS011;4594;50.994;7.126;2023-11-21T03:54:24;9.37;;;5.93;;
9117;SDS011;4594;50.994;7.126;2023-11-21T03:56:50;7.67;;;5.60;;
9117;SDS011;4594;50.994;7.126;2023-11-21T03:59:17;8.27;;;6.33;;
9117;SDS011;4594;50.994;7.126;2023-11-21T04:01:42;9.30;;;6.17;;
9117;SDS011;4594;50.994;7.126;2023-11-21T04:04:08;9.03;;;6.13;;
9117;SDS011;4594;50.994;7.126;2023-11-21T04:06:34;7.03;;;5.90;;
9117;SDS011;4594;50.994;7.126;2023-11-21T04:09:00;7.63;;;6.07;;
9117;SDS011;4594;50.994;7.126;2023-11-21T04:11:26;8.73;;;6.20;;
9117;SDS011;4594;50.994;7.126;2023-11-21T04:13:54;8.00;;;6.77;;
9117;SDS011;4594;50.994;7.126;2023-11-21T04:16:20;9.43;;;6.43;;
9117;SDS011;4594;50.994;7.126;2023-11-21T04:18:46;9.17;;;6.33;;
9117;SDS011;4594;50.994;7.126;2023-11-21T04:21:12;7.97;;;6.83;;
9117;SDS011;4594;50.994;7.126;2023-11-21T04:23:37;8.50;;;6.47;;
9117;SDS011;4594;50.994;7.126;2023-11-21T04:26:04;11.30;;;7.13;;
9117;SDS011;4594;50.994;7.126;2023-11-21T04:28:30;9.93;;;6.90;;
9117;SDS011;4594;50.994;7.126;2023-11-21T04:30:56;9.37;;;6.47;;
9117;SDS011;4594;50.994;7.126;2023-11-21T04:33:22;9.23;;;6.53;;
9117;SDS011;4594;50.994;7.126;2023-11-21T04:35:47;8.10;;;6.73;;
9117;SDS011;4594;50.994;7.126;2023-11-21T04:38:13;13.70;;;7.43;;
9117;SDS011;4594;50.994;7.126;2023-11-21T04:40:39;11.20;;;7.83;;
9117;SDS011;4594;50.994;7.126;2023-11-21T04:43:05;10.70;;;7.10;;
9117;SDS011;4594;50.994;7.126;2023-11-21T04:45:30;8.57;;;7.03;;
9117;SDS011;4594;50.994;7.126;2023-11-21T04:47:56;11.07;;;7.13;;
9117;SDS011;4594;50.994;7.126;2023-11-21T04:50:22;8.63;;;6.17;;
9117;SDS011;4594;50.994;7.126;2023-11-21T04:52:47;8.73;;;5.93;;
9117;SDS011;4594;50.994;7.126;2023-11-21T04:55:13;8.97;;;6.97;;
9117;SDS011;4594;50.994;7.126;2023-11-21T04:57:40;8.30;;;6.80;;
9117;SDS011;4594;50.994;7.126;2023-11-21T05:00:06;10.23;;;6.90;;
9117;SDS011;4594;50.994;7.126;2023-11-21T05:02:34;10.70;;;7.10;;
9117;SDS011;4594;50.994;7.126;2023-11-21T05:05:00;12.80;;;7.23;;
9117;SDS011;4594;50.994;7.126;2023-11-21T05:07:27;9.67;;;7.07;;
9117;SDS011;4594;50.994;7.126;2023-11-21T05:09:54;9.00;;;7.03;;
9117;SDS011;4594;50.994;7.126;2023-11-21T05:12:23;11.80;;;7.03;;
9117;SDS011;4594;50.994;7.126;2023-11-21T05:14:50;8.60;;;6.87;;
9117;SDS011;4594;50.994;7.126;2023-11-21T05:17:16;11.57;;;6.40;;
9117;SDS011;4594;50.994;7.126;2023-11-21T05:19:42;10.57;;;6.97;;
9117;SDS011;4594;50.994;7.126;2023-11-21T05:22:10;9.73;;;7.40;;
9117;SDS011;4594;50.994;7.126;2023-11-21T05:24:37;11.43;;;7.43;;
9117;SDS011;4594;50.994;7.126;2023-11-21T05:27:04;11.33;;;7.30;;
9117;SDS011;4594;50.994;7.126;2023-11-21T05:29:30;18.70;;;7.30;;
9117;SDS011;4594;50.994;7.126;2023-11-21T05:31:56;13.30;;;7.67;;
9117;SDS011;4594;50.994;7.126;2023-11-21T05:34:21;10.60;;;7.33;;
9117;SDS011;4594;50.994;7.126;2023-11-21T05:36:49;10.47;;;7.27;;
9117;SDS011;4594;50.994;7.126;2023-11-21T05:39:15;10.00;;;6.40;;
9117;SDS011;4594;50.994;7.126;2023-11-21T05:41:44;8.63;;;6.50;;
9117;SDS011;4594;50.994;7.126;2023-11-21T05:44:10;10.03;;;7.13;;
9117;SDS011;4594;50.994;7.126;2023-11-21T05:46:37;11.03;;;7.27;;
9117;SDS011;4594;50.994;7.126;2023-11-21T05:49:02;9.80;;;7.10;;
9117;SDS011;4594;50.994;7.126;2023-11-21T05:51:28;11.83;;;7.43;;
9117;SDS011;4594;50.994;7.126;2023-11-21T05:53:54;9.20;;;7.00;;
9117;SDS011;4594;50.994;7.126;2023-11-21T05:56:20;12.63;;;7.00;;
9117;SDS011;4594;50.994;7.126;2023-11-21T05:58:45;12.70;;;7.30;;
9117;SDS011;4594;50.994;7.126;2023-11-21T06:01:11;10.57;;;7.10;;
9117;SDS011;4594;50.994;7.126;2023-11-21T06:03:38;9.07;;;7.40;;
9117;SDS011;4594;50.994;7.126;2023-11-21T06:06:04;11.30;;;6.87;;
9117;SDS011;4594;50.994;7.126;2023-11-21T06:08:30;8.87;;;6.67;;
9117;SDS011;4594;50.994;7.126;2023-11-21T06:10:56;11.20;;;7.30;;
9117;SDS011;4594;50.994;7.126;2023-11-21T06:13:21;12.90;;;7.57;;
9117;SDS011;4594;50.994;7.126;2023-11-21T06:15:49;13.33;;;6.67;;
9117;SDS011;4594;50.994;7.126;2023-11-21T06:18:16;9.70;;;7.20;;
9117;SDS011;4594;50.994;7.126;2023-11-21T06:20:44;13.93;;;7.63;;
9117;SDS011;4594;50.994;7.126;2023-11-21T06:23:11;8.73;;;7.27;;
9117;SDS011;4594;50.994;7.126;2023-11-21T06:25:37;9.07;;;7.33;;
9117;SDS011;4594;50.994;7.126;2023-11-21T06:28:03;9.63;;;7.37;;
9117;SDS011;4594;50.994;7.126;2023-11-21T06:30:29;9.90;;;6.43;;
9117;SDS011;4594;50.994;7.126;2023-11-21T06:32:54;10.53;;;7.03;;
9117;SDS011;4594;50.994;7.126;2023-11-21T06:35:21;8.87;;;6.50;;
9117;SDS011;4594;50.994;7.126;2023-11-21T06:37:47;8.03;;;6.93;;
9117;SDS011;4594;50.994;7.126;2023-11-21T06:40:13;7.43;;;6.47;;
9117;SDS011;4594;50.994;7.126;2023-11-21T06:42:40;10.63;;;6.90;;
9117;SDS011;4594;50.994;7.126;2023-11-21T06:45:06;10.90;;;6.77;;
9117;SDS011;4594;50.994;7.126;2023-11-21T06:47:35;9.67;;;7.57;;
9117;SDS011;4594;50.994;7.126;2023-11-21T06:50:03;10.57;;;7.30;;
9117;SDS011;4594;50.994;7.126;2023-11-21T06:52:29;8.83;;;6.70;;
9117;SDS011;4594;50.994;7.126;2023-11-21T06:54:55;13.00;;;7.63;;
9117;SDS011;4594;50.994;7.126;2023-11-21T06:57:22;10.67;;;7.07;;
9117;SDS011;4594;50.994;7.126;2023-11-21T06:59:48;11.33;;;7.67;;
9117;SDS011;4594;50.994;7.126;2023-11-21T07:02:16;10.97;;;7.30;;
9117;SDS011;4594;50.994;7.126;2023-11-21T07:04:46;8.87;;;7.03;;
9117;SDS011;4594;50.994;7.126;2023-11-21T07:07:12;9.10;;;7.17;;
9117;SDS011;4594;50.994;7.126;2023-11-21T07:09:38;10.70;;;6.93;;
9117;SDS011;4594;50.994;7.126;2023-11-21T07:12:04;10.67;;;7.47;;
9117;SDS011;4594;50.994;7.126;2023-11-21T07:14:33;12.17;;;7.93;;
9117;SDS011;4594;50.994;7.126;2023-11-21T07:16:59;12.33;;;7.27;;
9117;SDS011;4594;50.994;7.126;2023-11-21T07:19:25;11.80;;;7.93;;
9117;SDS011;4594;50.994;7.126;2023-11-21T07:21:50;12.57;;;8.13;;
9117;SDS011;4594;50.994;7.126;2023-11-21T07:24:16;12.20;;;8.00;;
9117;SDS011;4594;50.994;7.126;2023-11-21T07:26:42;10.93;;;7.57;;
9117;SDS011;4594;50.994;7.126;2023-11-21T07:29:08;10.23;;;7.67;;
9117;SDS011;4594;50.994;7.126;2023-11-21T07:31:34;11.37;;;8.47;;
9117;SDS011;4594;50.994;7.126;2023-11-21T07:33:59;11.60;;;7.83;;
9117;SDS011;4594;50.994;7.126;2023-11-21T07:36:26;11.17;;;7.63;;
9117;SDS011;4594;50.994;7.126;2023-11-21T07:38:52;14.13;;;8.57;;
9117;SDS011;4594;50.994;7.126;2023-11-21T07:41:18;14.60;;;9.10;;
9117;SDS011;4594;50.994;7.126;2023-11-21T07:43:44;11.23;;;8.23;;
9117;SDS011;4594;50.994;7.126;2023-11-21T07:46:11;11.07;;;7.73;;
9117;SDS011;4594;50.994;7.126;2023-11-21T07:48:38;13.10;;;8.50;;
9117;SDS011;4594;50.994;7.126;2023-11-21T07:51:05;13.47;;;8.37;;
9117;SDS011;4594;50.994;7.126;2023-11-21T07:53:34;17.10;;;9.50;;
9117;SDS011;4594;50.994;7.126;2023-11-21T07:56:04;16.90;;;10.30;;
9117;SDS011;4594;50.994;7.126;2023-11-21T07:58:34;17.90;;;9.80;;
9117;SDS011;4594;50.994;7.126;2023-11-21T08:01:01;13.77;;;9.63;;
9117;SDS011;4594;50.994;7.126;2023-11-21T08:03:29;14.27;;;9.30;;
9117;SDS011;4594;50.994;7.126;2023-11-21T08:05:58;13.20;;;8.77;;
9117;SDS011;4594;50.994;7.126;2023-11-21T08:08:24;16.67;;;9.83;;
9117;SDS011;4594;50.994;7.126;2023-11-21T08:10:51;13.27;;;9.57;;
9117;SDS011;4594;50.994;7.126;2023-11-21T08:13:26;12.73;;;9.10;;
9117;SDS011;4594;50.994;7.126;2023-11-21T08:15:55;20.67;;;10.60;;
9117;SDS011;4594;50.994;7.126;2023-11-21T08:18:26;22.40;;;11.43;;
9117;SDS011;4594;50.994;7.126;2023-11-21T08:20:53;22.63;;;11.57;;
9117;SDS011;4594;50.994;7.126;2023-11-21T08:23:20;24.37;;;12.97;;
9117;SDS011;4594;50.994;7.126;2023-11-21T08:25:50;24.03;;;12.47;;
9117;SDS011;4594;50.994;7.126;2023-11-21T08:28:16;23.73;;;12.80;;
9117;SDS011;4594;50.994;7.126;2023-11-21T08:30:42;23.43;;;12.47;;
9117;SDS011;4594;50.994;7.126;2023-11-21T08:33:09;25.10;;;12.93;;
9117;SDS011;4594;50.994;7.126;2023-11-21T08:35:36;22.13;;;12.50;;
9117;SDS011;4594;50.994;7.126;2023-11-21T08:38:03;22.23;;;12.50;;
9117;SDS011;4594;50.994;7.126;2023-11-21T08:40:29;25.50;;;12.40;;
9117;SDS011;4594;50.994;7.126;2023-11-21T08:42:55;26.37;;;13.67;;
9117;SDS011;4594;50.994;7.126;2023-11-21T08:45:23;36.00;;;13.97;;
9117;SDS011;4594;50.994;7.126;2023-11-21T08:47:51;27.40;;;12.97;;
9117;SDS011;4594;50.994;7.126;2023-11-21T08:50:16;25.33;;;12.60;;
9117;SDS011;4594;50.994;7.126;2023-11-21T08:52:43;25.50;;;12.73;;
9117;SDS011;4594;50.994;7.126;2023-11-21T08:55:11;23.17;;;11.90;;
9117;SDS011;4594;50.994;7.126;2023-11-21T08:57:38;20.80;;;12.00;;
9117;SDS011;4594;50.994;7.126;2023-11-21T09:00:08;25.53;;;12.83;;
9117;SDS011;4594;50.994;7.126;2023-11-21T09:02:44;19.83;;;12.37;;
9117;SDS011;4594;50.994;7.126;2023-11-21T09:05:11;23.23;;;13.23;;
9117;SDS011;4594;50.994;7.126;2023-11-21T09:07:39;22.50;;;11.90;;
9117;SDS011;4594;50.994;7.126;2023-11-21T09:10:06;28.27;;;14.57;;
9117;SDS011;4594;50.994;7.126;2023-11-21T09:12:34;29.17;;;13.60;;
9117;SDS011;4594;50.994;7.126;2023-11-21T09:15:02;27.30;;;14.20;;
9117;SDS011;4594;50.994;7.126;2023-11-21T09:17:29;30.53;;;15.40;;
9117;SDS011;4594;50.994;7.126;2023-11-21T09:19:55;31.53;;;14.50;;
9117;SDS011;4594;50.994;7.126;2023-11-21T09:22:22;33.77;;;14.53;;
9117;SDS011;4594;50.994;7.126;2023-11-21T09:24:49;33.97;;;14.87;;
9117;SDS011;4594;50.994;7.126;2023-11-21T09:27:16;32.97;;;14.23;;
9117;SDS011;4594;50.994;7.126;2023-11-21T09:29:42;32.40;;;14.87;;
9117;SDS011;4594;50.994;7.126;2023-11-21T09:32:08;34.17;;;15.50;;
9117;SDS011;4594;50.994;7.126;2023-11-21T09:34:37;37.53;;;15.93;;
9117;SDS011;4594;50.994;7.126;2023-11-21T09:37:04;38.80;;;15.90;;
9117;SDS011;4594;50.994;7.126;2023-11-21T09:39:31;33.37;;;14.77;;
9117;SDS011;4594;50.994;7.126;2023-11-21T09:42:17;35.27;;;15.20;;
9117;SDS011;4594;50.994;7.126;2023-11-21T09:45:27;32.63;;;14.67;;
9117;SDS011;4594;50.994;7.126;2023-11-21T09:47:59;27.00;;;13.97;;
9117;SDS011;4594;50.994;7.126;2023-11-21T09:50:25;32.90;;;15.93;;
9117;SDS011;4594;50.994;7.126;2023-11-21T09:52:54;39.30;;;16.30;;
9117;SDS011;4594;50.994;7.126;2023-11-21T09:55:43;36.03;;;15.40;;
9117;SDS011;4594;50.994;7.126;2023-11-21T09:58:11;33.87;;;15.37;;
9117;SDS011;4594;50.994;7.126;2023-11-21T10:00:42;36.93;;;16.33;;
9117;SDS011;4594;50.994;7.126;2023-11-21T10:03:12;32.43;;;15.27;;
9117;SDS011;4594;50.994;7.126;2023-11-21T10:05:39;37.53;;;16.00;;
9117;SDS011;4594;50.994;7.126;2023-11-21T10:08:09;31.40;;;15.53;;
9117;SDS011;4594;50.994;7.126;2023-11-21T10:10:37;38.67;;;16.47;;
9117;SDS011;4594;50.994;7.126;2023-11-21T10:13:11;33.27;;;16.10;;
9117;SDS011;4594;50.994;7.126;2023-11-21T10:15:41;30.40;;;15.47;;
9117;SDS011;4594;50.994;7.126;2023-11-21T10:18:13;33.83;;;15.40;;
9117;SDS011;4594;50.994;7.126;2023-11-21T10:20:40;34.27;;;16.17;;
9117;SDS011;4594;50.994;7.126;2023-11-21T10:23:07;36.00;;;15.87;;
9117;SDS011;4594;50.994;7.126;2023-11-21T10:25:36;36.87;;;17.00;;
9117;SDS011;4594;50.994;7.126;2023-11-21T10:28:03;35.53;;;15.43;;
9117;SDS011;4594;50.994;7.126;2023-11-21T10:30:36;37.53;;;17.07;;
9117;SDS011;4594;50.994;7.126;2023-11-21T10:33:04;32.33;;;15.43;;
9117;SDS011;4594;50.994;7.126;2023-11-21T10:35:44;34.27;;;14.90;;
9117;SDS011;4594;50.994;7.126;2023-11-21T10:38:12;36.13;;;16.37;;
9117;SDS011;4594;50.994;7.126;2023-11-21T10:40:39;27.27;;;14.93;;
9117;SDS011;4594;50.994;7.126;2023-11-21T10:43:07;29.83;;;15.57;;
9117;SDS011;4594;50.994;7.126;2023-11-21T10:45:38;35.70;;;16.20;;
9117;SDS011;4594;50.994;7.126;2023-11-21T10:48:05;43.30;;;17.77;;
9117;SDS011;4594;50.994;7.126;2023-11-21T10:50:40;31.27;;;16.27;;
9117;SDS011;4594;50.994;7.126;2023-11-21T10:53:07;31.07;;;16.43;;
9117;SDS011;4594;50.994;7.126;2023-11-21T10:55:33;34.77;;;16.30;;
9117;SDS011;4594;50.994;7.126;2023-11-21T10:58:01;35.73;;;16.90;;
9117;SDS011;4594;50.994;7.126;2023-11-21T11:00:29;32.47;;;15.73;;
9117;SDS011;4594;50.994;7.126;2023-11-21T11:02:57;34.77;;;16.87;;
9117;SDS011;4594;50.994;7.126;2023-11-21T11:05:24;37.17;;;17.50;;
9117;SDS011;4594;50.994;7.126;2023-11-21T11:08:02;33.53;;;16.67;;
9117;SDS011;4594;50.994;7.126;2023-11-21T11:10:32;39.73;;;16.97;;
9117;SDS011;4594;50.994;7.126;2023-11-21T11:12:59;31.23;;;15.40;;
9117;SDS011;4594;50.994;7.126;2023-11-21T11:15:25;33.20;;;17.13;;
9117;SDS011;4594;50.994;7.126;2023-11-21T11:17:52;33.60;;;16.50;;
9117;SDS011;4594;50.994;7.126;2023-11-21T11:20:22;33.10;;;17.17;;
9117;SDS011;4594;50.994;7.126;2023-11-21T11:28:22;31.13;;;16.73;;
9117;SDS011;4594;50.994;7.126;2023-11-21T11:37:02;34.30;;;17.20;;
9117;SDS011;4594;50.994;7.126;2023-11-21T11:39:39;32.50;;;15.93;;
9117;SDS011;4594;50.994;7.126;2023-11-21T11:42:08;33.37;;;17.67;;
9117;SDS011;4594;50.994;7.126;2023-11-21T11:47:24;31.60;;;17.57;;
9117;SDS011;4594;50.994;7.126;2023-11-21T11:49:58;29.10;;;15.97;;
9117;SDS011;4594;50.994;7.126;2023-11-21T11:55:07;43.73;;;19.27;;
9117;SDS011;4594;50.994;7.126;2023-11-21T11:57:43;33.70;;;18.23;;
9117;SDS011;4594;50.994;7.126;2023-11-21T12:02:51;33.03;;;16.67;;
9117;SDS011;4594;50.994;7.126;2023-11-21T12:05:19;34.43;;;17.43;;
9117;SDS011;4594;50.994;7.126;2023-11-21T12:10:18;34.97;;;16.57;;
9117;SDS011;4594;50.994;7.126;2023-11-21T12:13:01;33.07;;;16.63;;
9117;SDS011;4594;50.994;7.126;2023-11-21T12:15:32;35.93;;;18.33;;
9117;SDS011;4594;50.994;7.126;2023-11-21T12:18:00;39.67;;;18.67;;
9117;SDS011;4594;50.994;7.126;2023-11-21T12:20:26;34.47;;;18.03;;
9117;SDS011;4594;50.994;7.126;2023-11-21T12:22:54;32.63;;;16.17;;
9117;SDS011;4594;50.994;7.126;2023-11-21T12:25:25;28.67;;;16.00;;
9117;SDS011;4594;50.994;7.126;2023-11-21T12:27:59;33.83;;;16.67;;
9117;SDS011;4594;50.994;7.126;2023-11-21T12:30:27;35.60;;;17.00;;
9117;SDS011;4594;50.994;7.126;2023-11-21T12:32:56;31.90;;;15.70;;
9117;SDS011;4594;50.994;7.126;2023-11-21T12:35:24;38.90;;;16.73;;
9117;SDS011;4594;50.994;7.126;2023-11-21T12:37:53;31.20;;;16.13;;
9117;SDS011;4594;50.994;7.126;2023-11-21T12:40:22;39.47;;;17.17;;
9117;SDS011;4594;50.994;7.126;2023-11-21T12:42:51;36.00;;;17.33;;
9117;SDS011;4594;50.994;7.126;2023-11-21T12:45:20;29.30;;;15.80;;
9117;SDS011;4594;50.994;7.126;2023-11-21T12:47:51;28.63;;;15.67;;
9117;SDS011;4594;50.994;7.126;2023-11-21T12:50:34;29.93;;;16.13;;
9117;SDS011;4594;50.994;7.126;2023-11-21T12:55:38;32.97;;;15.57;;
9117;SDS011;4594;50.994;7.126;2023-11-21T12:58:07;29.60;;;15.67;;
9117;SDS011;4594;50.994;7.126;2023-11-21T13:00:35;33.10;;;17.17;;
9117;SDS011;4594;50.994;7.126;2023-11-21T13:03:10;33.37;;;16.40;;
9117;SDS011;4594;50.994;7.126;2023-11-21T13:05:42;38.13;;;16.37;;
9117;SDS011;4594;50.994;7.126;2023-11-21T13:08:12;30.77;;;16.07;;
9117;SDS011;4594;50.994;7.126;2023-11-21T13:10:39;30.47;;;16.37;;
9117;SDS011;4594;50.994;7.126;2023-11-21T13:13:12;31.97;;;16.10;;
9117;SDS011;4594;50.994;7.126;2023-11-21T13:15:49;28.13;;;14.90;;
9117;SDS011;4594;50.994;7.126;2023-11-21T13:18:25;31.57;;;15.43;;
9117;SDS011;4594;50.994;7.126;2023-11-21T13:20:52;29.00;;;14.13;;
9117;SDS011;4594;50.994;7.126;2023-11-21T13:23:20;26.97;;;13.90;;
9117;SDS011;4594;50.994;7.126;2023-11-21T13:25:46;30.13;;;14.47;;
9117;SDS011;4594;50.994;7.126;2023-11-21T13:28:12;29.33;;;13.73;;
9117;SDS011;4594;50.994;7.126;2023-11-21T13:30:40;24.13;;;13.03;;
9117;SDS011;4594;50.994;7.126;2023-11-21T13:33:07;28.57;;;13.17;;
9117;SDS011;4594;50.994;7.126;2023-11-21T13:35:36;24.27;;;12.63;;
9117;SDS011;4594;50.994;7.126;2023-11-21T13:38:07;22.87;;;12.77;;
9117;SDS011;4594;50.994;7.126;2023-11-21T13:40:38;26.10;;;12.50;;
9117;SDS011;4594;50.994;7.126;2023-11-21T13:43:09;27.67;;;11.87;;
9117;SDS011;4594;50.994;7.126;2023-11-21T13:45:36;28.03;;;12.47;;
9117;SDS011;4594;50.994;7.126;2023-11-21T13:48:04;29.77;;;13.10;;
9117;SDS011;4594;50.994;7.126;2023-11-21T13:50:35;26.03;;;12.17;;
9117;SDS011;4594;50.994;7.126;2023-11-21T13:53:02;23.57;;;11.67;;
9117;SDS011;4594;50.994;7.126;2023-11-21T13:55:43;28.73;;;13.40;;
9117;SDS011;4594;50.994;7.126;2023-11-21T13:58:10;22.23;;;11.70;;
9117;SDS011;4594;50.994;7.126;2023-11-21T14:00:37;23.17;;;11.90;;
9117;SDS011;4594;50.994;7.126;2023-11-21T14:03:22;21.00;;;11.20;;
9117;SDS011;4594;50.994;7.126;2023-11-21T14:05:57;21.77;;;11.60;;
9117;SDS011;4594;50.994;7.126;2023-11-21T14:08:25;27.83;;;12.43;;
9117;SDS011;4594;50.994;7.126;2023-11-21T14:10:53;24.67;;;12.07;;
9117;SDS011;4594;50.994;7.126;2023-11-21T14:13:24;32.30;;;12.93;;
9117;SDS011;4594;50.994;7.126;2023-11-21T14:15:51;23.87;;;12.03;;
9117;SDS011;4594;50.994;7.126;2023-11-21T14:18:23;26.30;;;12.57;;
9117;SDS011;4594;50.994;7.126;2023-11-21T14:20:59;34.37;;;13.07;;
9117;SDS011;4594;50.994;7.126;2023-11-21T14:23:25;28.07;;;12.47;;
9117;SDS011;4594;50.994;7.126;2023-11-21T14:25:50;27.20;;;12.00;;
9117;SDS011;4594;50.994;7.126;2023-11-21T14:28:17;27.37;;;12.90;;
9117;SDS011;4594;50.994;7.126;2023-11-21T14:30:44;28.23;;;12.37;;
9117;SDS011;4594;50.994;7.126;2023-11-21T14:33:11;31.23;;;12.53;;
9117;SDS011;4594;50.994;7.126;2023-11-21T14:35:37;28.70;;;13.10;;
9117;SDS011;4594;50.994;7.126;2023-11-21T14:38:03;32.87;;;13.60;;
9117;SDS011;4594;50.994;7.126;2023-11-21T14:40:33;25.17;;;12.53;;
9117;SDS011;4594;50.994;7.126;2023-11-21T14:43:01;31.00;;;13.57;;
9117;SDS011;4594;50.994;7.126;2023-11-21T14:45:31;26.33;;;13.27;;
9117;SDS011;4594;50.994;7.126;2023-11-21T14:48:00;31.27;;;13.47;;
9117;SDS011;4594;50.994;7.126;2023-11-21T14:50:32;34.87;;;14.17;;
9117;SDS011;4594;50.994;7.126;2023-11-21T14:53:09;30.10;;;13.97;;
9117;SDS011;4594;50.994;7.126;2023-11-21T14:55:38;38.27;;;15.13;;
9117;SDS011;4594;50.994;7.126;2023-11-21T14:58:17;29.50;;;13.07;;
9117;SDS011;4594;50.994;7.126;2023-11-21T15:00:52;28.60;;;13.70;;
9117;SDS011;4594;50.994;7.126;2023-11-21T15:03:25;31.20;;;13.73;;
9117;SDS011;4594;50.994;7.126;2023-11-21T15:05:56;30.77;;;13.20;;
9117;SDS011;4594;50.994;7.126;2023-11-21T15:08:43;29.47;;;13.17;;
9117;SDS011;4594;50.994;7.126;2023-11-21T15:11:10;31.43;;;14.53;;
9117;SDS011;4594;50.994;7.126;2023-11-21T15:13:41;26.63;;;13.53;;
9117;SDS011;4594;50.994;7.126;2023-11-21T15:16:07;27.57;;;13.70;;
9117;SDS011;4594;50.994;7.126;2023-11-21T15:18:37;29.03;;;13.50;;
9117;SDS011;4594;50.994;7.126;2023-11-21T15:21:03;28.47;;;14.23;;
9117;SDS011;4594;50.994;7.126;2023-11-21T15:23:29;40.40;;;15.47;;
9117;SDS011;4594;50.994;7.126;2023-11-21T15:25:57;30.77;;;15.20;;
9117;SDS011;4594;50.994;7.126;2023-11-21T15:28:22;32.43;;;15.53;;
9117;SDS011;4594;50.994;7.126;2023-11-21T15:30:49;31.37;;;13.63;;